METAR KSCH 220017Z AUTO 14004KT 10SM OVC027 19/17 A2986 A02